Time;durP1;ratioP1;P1;durP2;ratioP2;P2;SDS_P1;SDS_P2;PMS_P1;PMS_P2;Temp;Humidity;BMP_temperature;BMP_pressure;BME280_temperature;BME280_humidity;BME280_pressure;Samples;Min_cycle;Max_cycle;Signal;HPM_P1;HPM_P2
2022/04/26 03:37:19;;;;;;;;;;;21.70;39.40;;;;;;6313222;27;20047;-48
2022/04/26 03:40:20;;;;;;;;;;;21.90;39.50;;;;;;6309993;27;19999;-49
2022/04/26 03:43:22;;;;;;;;;;;22.00;39.50;;;;;;6292529;27;19927;-52
2022/04/26 03:46:23;;;;;;;;;;;21.90;39.40;;;;;;6313553;27;20823;-49
2022/04/26 03:49:25;;;;;;;;;;;21.80;39.40;;;;;;6312679;27;19935;-51
2022/04/26 03:52:27;;;;;;;;;;;21.90;39.50;;;;;;6314092;27;19931;-49
2022/04/26 03:55:29;;;;;;;;;;;21.90;39.50;;;;;;6309680;27;19924;-48
2022/04/26 03:58:30;;;;;;;;;;;21.80;39.50;;;;;;6304110;27;20867;-48
2022/04/26 04:01:32;;;;;;;;;;;21.80;39.50;;;;;;6309341;27;20824;-51
2022/04/26 04:04:34;;;;;;;;;;;21.70;39.50;;;;;;6310184;27;20777;-49
2022/04/26 04:07:35;;;;;;;;;;;21.70;39.50;;;;;;6307840;27;19931;-48
2022/04/26 04:10:37;;;;;;;;;;;21.70;39.50;;;;;;6310332;27;19931;-52
2022/04/26 04:13:38;;;;;;;;;;;21.70;39.50;;;;;;6309956;27;21664;-48
2022/04/26 04:16:40;;;;;;;;;;;21.80;39.60;;;;;;6310286;27;19931;-49
2022/04/26 04:19:42;;;;;;;;;;;21.70;39.60;;;;;;6310185;27;19935;-49
2022/04/26 04:22:43;;;;;;;;;;;21.90;39.70;;;;;;6309221;27;19974;-52
2022/04/26 04:25:45;;;;;;;;;;;21.70;39.60;;;;;;6312421;27;20108;-49
2022/04/26 04:28:46;;;;;;;;;;;21.60;39.50;;;;;;6307040;27;19977;-47
2022/04/26 04:31:50;;;;;;;;;;;21.50;39.40;;;;;;6310358;27;19935;-50
2022/04/26 04:34:52;;;;;;;;;;;21.80;39.70;;;;;;6310501;27;19939;-50
2022/04/26 04:37:54;;;;;;;;;;;21.70;39.60;;;;;;6306701;27;20045;-50
2022/04/26 04:40:55;;;;;;;;;;;21.70;39.70;;;;;;6307614;27;19934;-50
2022/04/26 04:43:56;;;;;;;;;;;21.70;39.60;;;;;;6308440;27;19950;-53
2022/04/26 04:47:00;;;;;;;;;;;21.50;39.50;;;;;;6303489;27;20045;-51
2022/04/26 04:50:02;;;;;;;;;;;21.50;39.50;;;;;;6307335;27;19923;-50
2022/04/26 04:53:03;;;;;;;;;;;21.70;39.60;;;;;;6308301;27;19978;-50
2022/04/26 04:56:07;;;;;;;;;;;21.70;39.60;;;;;;6306441;27;20800;-50
2022/04/26 04:59:10;;;;;;;;;;;21.60;39.60;;;;;;6303539;27;19931;-48
2022/04/26 05:02:12;;;;;;;;;;;21.60;39.70;;;;;;6305837;27;20205;-49
2022/04/26 05:05:14;;;;;;;;;;;21.70;39.60;;;;;;6304280;27;19927;-48
2022/04/26 05:08:16;;;;;;;;;;;21.60;39.60;;;;;;6300412;27;20012;-53
2022/04/26 05:11:18;;;;;;;;;;;21.50;39.50;;;;;;6309440;27;20034;-54
2022/04/26 05:14:19;;;;;;;;;;;21.60;39.60;;;;;;6305115;27;20050;-50
2022/04/26 05:17:20;;;;;;;;;;;21.60;39.70;;;;;;6305128;27;19927;-49
2022/04/26 05:20:22;;;;;;;;;;;21.50;39.50;;;;;;6299943;27;20043;-50
2022/04/26 05:26:39;;;;;;;;;;;21.60;39.70;;;;;;6281122;28;19932;-49
2022/04/26 05:29:41;;;;;;;;;;;21.70;39.70;;;;;;6296969;27;20058;-49
2022/04/26 05:32:42;;;;;;;;;;;21.40;39.50;;;;;;6298416;27;19988;-49
2022/04/26 05:35:44;;;;;;;;;;;21.50;39.60;;;;;;6293236;28;20991;-53
2022/04/26 05:38:46;;;;;;;;;;;21.40;39.50;;;;;;6290911;27;19967;-48
2022/04/26 05:41:47;;;;;;;;;;;21.60;39.60;;;;;;6293818;27;19942;-51
2022/04/26 05:44:48;;;;;;;;;;;21.60;39.60;;;;;;6296190;27;19959;-49
2022/04/26 05:47:50;;;;;;;;;;;21.60;39.60;;;;;;6286425;27;20698;-52
2022/04/26 05:50:52;;;;;;;;;;;21.30;39.30;;;;;;6286851;28;19976;-50
2022/04/26 05:53:53;;;;;;;;;;;21.70;39.50;;;;;;6287388;27;20046;-51
2022/04/26 05:56:54;;;;;;;;;;;21.60;39.40;;;;;;6280000;27;20129;-48
2022/04/26 05:59:56;;;;;;;;;;;21.60;39.30;;;;;;6278394;27;20161;-54
2022/04/26 06:02:57;;;;;;;;;;;21.60;39.30;;;;;;6273720;27;20008;-49
2022/04/26 06:05:59;;;;;;;;;;;21.80;39.30;;;;;;6272377;27;22110;-51
2022/04/26 06:09:01;;;;;;;;;;;21.60;39.20;;;;;;6255010;27;21167;-47
2022/04/26 06:12:02;;;;;;;;;;;21.60;39.10;;;;;;6274765;27;20870;-49
2022/04/26 06:15:04;;;;;;;;;;;21.60;39.10;;;;;;6266880;27;19931;-49
2022/04/26 06:18:06;;;;;;;;;;;21.80;39.10;;;;;;6261792;27;22078;-49
2022/04/26 06:21:08;;;;;;;;;;;21.90;39.10;;;;;;6251967;27;20046;-48
2022/04/26 06:24:10;;;;;;;;;;;21.90;39.10;;;;;;6269220;27;19968;-49
2022/04/26 06:27:12;;;;;;;;;;;21.90;39.00;;;;;;6248713;27;19939;-50
2022/04/26 06:30:14;;;;;;;;;;;22.00;39.00;;;;;;6241400;27;19974;-50
2022/04/26 06:33:17;;;;;;;;;;;22.00;39.00;;;;;;6248006;27;19935;-48
2022/04/26 06:36:26;;;;;;;;;;;22.00;38.90;;;;;;6227773;27;20084;-52
2022/04/26 06:39:28;;;;;;;;;;;21.90;38.80;;;;;;6204761;27;20066;-52
2022/04/26 06:42:30;;;;;;;;;;;22.10;38.90;;;;;;6207582;27;19927;-52
2022/04/26 06:45:31;;;;;;;;;;;22.10;38.90;;;;;;6190637;27;21418;-50
2022/04/26 06:48:33;;;;;;;;;;;22.10;38.80;;;;;;6195109;27;19931;-52
2022/04/26 06:51:40;;;;;;;;;;;22.10;38.80;;;;;;6174236;27;20618;-50
2022/04/26 06:54:42;;;;;;;;;;;22.20;38.70;;;;;;6179060;27;20054;-51
2022/04/26 06:57:44;;;;;;;;;;;22.20;38.70;;;;;;6193244;27;20040;-51
2022/04/26 07:00:46;;;;;;;;;;;22.20;39.40;;;;;;6167028;27;20023;-51
2022/04/26 07:03:48;;;;;;;;;;;22.30;38.70;;;;;;6132039;27;29112;-50
2022/04/26 07:06:50;;;;;;;;;;;22.30;38.60;;;;;;6130529;27;22549;-54
2022/04/26 07:09:52;;;;;;;;;;;22.40;38.70;;;;;;6107378;27;20128;-49
2022/04/26 07:12:53;;;;;;;;;;;22.50;38.70;;;;;;6120103;27;27263;-53
2022/04/26 07:15:55;;;;;;;;;;;22.60;38.70;;;;;;6090435;27;20001;-54
2022/04/26 07:18:57;;;;;;;;;;;22.50;38.70;;;;;;6128945;27;20050;-52
2022/04/26 07:22:00;;;;;;;;;;;22.50;38.60;;;;;;6089773;27;28139;-50
2022/04/26 07:25:06;;;;;;;;;;;22.50;38.60;;;;;;6072100;27;20004;-55
2022/04/26 07:28:09;;;;;;;;;;;22.50;38.70;;;;;;6071294;27;19939;-49
2022/04/26 07:31:10;;;;;;;;;;;22.50;38.70;;;;;;6061944;27;20044;-49
2022/04/26 07:37:29;;;;;;;;;;;22.60;38.60;;;;;;6032251;27;34474;-51
2022/04/26 07:40:34;;;;;;;;;;;22.70;38.70;;;;;;6090229;27;19931;-49
2022/04/26 07:43:36;;;;;;;;;;;22.50;38.60;;;;;;6070268;27;19973;-53
2022/04/26 07:46:37;;;;;;;;;;;22.60;38.60;;;;;;6066070;27;19931;-51
2022/04/26 07:49:40;;;;;;;;;;;22.70;38.60;;;;;;6046770;27;21222;-52
2022/04/26 07:52:42;;;;;;;;;;;22.70;38.60;;;;;;6071193;27;19932;-51
2022/04/26 07:55:44;;;;;;;;;;;22.70;38.70;;;;;;6073898;27;19933;-52
2022/04/26 07:58:45;;;;;;;;;;;22.50;38.50;;;;;;6055298;27;19932;-53
2022/04/26 08:01:46;;;;;;;;;;;22.70;38.60;;;;;;6057224;27;19932;-54
2022/04/26 08:04:48;;;;;;;;;;;22.80;38.60;;;;;;6004054;27;19939;-52
2022/04/26 08:07:50;;;;;;;;;;;22.80;38.60;;;;;;6004204;27;19993;-52
2022/04/26 08:10:52;;;;;;;;;;;22.80;38.50;;;;;;6056380;27;19932;-52
2022/04/26 08:13:53;;;;;;;;;;;22.80;38.60;;;;;;6008173;27;20531;-49
2022/04/26 08:16:55;;;;;;;;;;;22.80;38.50;;;;;;6027982;27;19932;-50
2022/04/26 08:19:56;;;;;;;;;;;22.90;39.20;;;;;;6060171;27;32257;-51
2022/04/26 08:22:58;;;;;;;;;;;22.70;38.50;;;;;;6058872;27;19938;-48
2022/04/26 08:29:16;;;;;;;;;;;23.00;38.50;;;;;;6020896;27;20040;-52
2022/04/26 08:32:17;;;;;;;;;;;23.00;38.50;;;;;;6012902;27;21281;-48
2022/04/26 08:35:20;;;;;;;;;;;22.90;38.40;;;;;;6032112;27;20061;-45
2022/04/26 08:38:23;;;;;;;;;;;23.10;38.50;;;;;;6009175;27;19970;-47
2022/04/26 08:41:24;;;;;;;;;;;23.10;38.60;;;;;;6056390;27;20073;-55
2022/04/26 08:44:26;;;;;;;;;;;23.00;38.40;;;;;;6020565;27;20577;-52
2022/04/26 08:53:56;;;;;;;;;;;23.20;38.40;;;;;;6025095;27;20062;-48
2022/04/26 08:56:57;;;;;;;;;;;23.20;38.40;;;;;;6015145;27;20020;-48
2022/04/26 08:59:59;;;;;;;;;;;23.20;38.40;;;;;;6021283;27;20080;-50
2022/04/26 09:03:02;;;;;;;;;;;23.20;38.40;;;;;;5965568;27;19982;-48
2022/04/26 09:06:07;;;;;;;;;;;23.10;38.30;;;;;;6019727;27;19932;-50
2022/04/26 09:09:11;;;;;;;;;;;23.20;38.50;;;;;;6017579;27;19963;-49
2022/04/26 09:12:13;;;;;;;;;;;23.30;38.50;;;;;;6013509;27;20065;-48
2022/04/26 09:15:16;;;;;;;;;;;23.30;38.60;;;;;;6004424;27;19931;-46
2022/04/26 09:18:22;;;;;;;;;;;23.20;38.50;;;;;;6029171;27;19935;-51
2022/04/26 09:21:27;;;;;;;;;;;23.30;39.20;;;;;;6029997;27;19976;-48
2022/04/26 09:24:29;;;;;;;;;;;23.50;38.60;;;;;;6030326;27;19937;-50
2022/04/26 09:27:34;;;;;;;;;;;23.30;38.60;;;;;;6036663;27;20066;-47
2022/04/26 09:30:36;;;;;;;;;;;23.30;38.50;;;;;;6002546;27;20289;-49
2022/04/26 09:33:40;;;;;;;;;;;23.30;38.50;;;;;;6030672;27;24595;-47
2022/04/26 09:36:43;;;;;;;;;;;23.30;38.50;;;;;;6033562;27;19931;-54
2022/04/26 09:39:53;;;;;;;;;;;23.30;38.50;;;;;;6050413;27;21368;-49
2022/04/26 09:42:57;;;;;;;;;;;23.30;38.50;;;;;;6039732;27;19938;-48
2022/04/26 09:45:59;;;;;;;;;;;23.30;38.50;;;;;;6044834;27;20128;-47
2022/04/26 09:49:05;;;;;;;;;;;23.30;38.60;;;;;;6038630;27;20105;-48
2022/04/26 09:52:08;;;;;;;;;;;23.40;38.70;;;;;;6054487;27;21599;-51
2022/04/26 09:55:10;;;;;;;;;;;23.20;38.40;;;;;;6040101;27;19938;-49
2022/04/26 09:58:13;;;;;;;;;;;23.30;38.60;;;;;;6025465;27;22394;-48
2022/04/26 10:01:15;;;;;;;;;;;23.30;38.50;;;;;;6008275;27;22615;-47
2022/04/26 10:04:17;;;;;;;;;;;23.20;38.40;;;;;;6014938;27;20492;-50
2022/04/26 10:07:20;;;;;;;;;;;23.30;38.50;;;;;;6017866;27;19966;-50
2022/04/26 10:10:24;;;;;;;;;;;23.40;38.60;;;;;;6028902;27;20002;-46
2022/04/26 10:13:35;;;;;;;;;;;23.30;38.50;;;;;;6073526;27;20053;-49
2022/04/26 10:16:36;;;;;;;;;;;23.30;38.50;;;;;;6021620;27;20011;-47
2022/04/26 10:19:39;;;;;;;;;;;23.40;38.50;;;;;;6028842;27;19931;-51
2022/04/26 10:22:55;;;;;;;;;;;23.40;38.50;;;;;;6063793;27;20688;-53
2022/04/26 10:26:08;;;;;;;;;;;23.20;38.40;;;;;;6062403;27;20065;-53
2022/04/26 10:29:14;;;;;;;;;;;23.40;38.50;;;;;;6096349;27;20847;-48
2022/04/26 10:32:28;;;;;;;;;;;23.40;38.50;;;;;;6101361;27;19931;-49
2022/04/26 10:35:30;;;;;;;;;;;23.40;38.50;;;;;;6112131;27;19939;-52
2022/04/26 10:38:31;;;;;;;;;;;23.40;38.50;;;;;;6110324;27;19982;-50
2022/04/26 10:41:34;;;;;;;;;;;23.30;38.50;;;;;;6127570;27;19932;-52
2022/04/26 10:44:40;;;;;;;;;;;23.40;38.60;;;;;;6135340;27;20333;-53
2022/04/26 10:47:42;;;;;;;;;;;23.40;38.50;;;;;;6165708;27;20931;-50
2022/04/26 10:50:43;;;;;;;;;;;23.50;38.50;;;;;;6178781;27;19977;-54
2022/04/26 10:53:45;;;;;;;;;;;23.40;38.50;;;;;;6183818;27;19982;-48
2022/04/26 10:56:47;;;;;;;;;;;23.50;39.20;;;;;;6180873;27;19939;-46
2022/04/26 10:59:49;;;;;;;;;;;23.50;38.60;;;;;;6178837;27;20008;-51
2022/04/26 11:02:51;;;;;;;;;;;23.40;38.50;;;;;;6160390;27;19946;-48
2022/04/26 11:05:54;;;;;;;;;;;23.40;38.50;;;;;;6173371;27;21798;-51
2022/04/26 11:09:04;;;;;;;;;;;23.50;38.50;;;;;;6184985;27;19935;-50
2022/04/26 11:12:08;;;;;;;;;;;23.40;38.90;;;;;;6187654;27;20986;-50
2022/04/26 11:15:11;;;;;;;;;;;23.70;38.60;;;;;;6156456;27;21238;-48
2022/04/26 11:18:19;;;;;;;;;;;23.50;38.50;;;;;;6164032;27;20059;-49
2022/04/26 11:21:24;;;;;;;;;;;23.50;38.60;;;;;;6132637;27;19970;-50
2022/04/26 11:30:57;;;;;;;;;;;23.40;38.40;;;;;;6158049;27;19939;-52
2022/04/26 11:33:59;;;;;;;;;;;23.60;38.50;;;;;;6125402;27;20050;-47
2022/04/26 11:37:01;;;;;;;;;;;23.60;38.50;;;;;;6158146;27;20040;-46
2022/04/26 11:40:03;;;;;;;;;;;23.60;38.40;;;;;;6167501;27;19939;-48
2022/04/26 11:43:06;;;;;;;;;;;23.50;38.30;;;;;;6159897;27;19962;-48
2022/04/26 11:46:11;;;;;;;;;;;23.60;39.00;;;;;;6140751;27;19938;-47
2022/04/26 11:49:12;;;;;;;;;;;23.70;38.40;;;;;;6132834;27;19939;-52
2022/04/26 11:52:22;;;;;;;;;;;23.70;38.30;;;;;;6110382;27;20508;-49
2022/04/26 11:55:25;;;;;;;;;;;23.70;38.30;;;;;;6109748;27;19930;-46
2022/04/26 11:58:32;;;;;;;;;;;23.70;38.30;;;;;;6098732;27;20107;-46
2022/04/26 12:01:36;;;;;;;;;;;23.70;38.20;;;;;;6012504;27;19935;-50
2022/04/26 12:04:38;;;;;;;;;;;23.80;38.20;;;;;;6031268;27;21283;-47
2022/04/26 12:07:41;;;;;;;;;;;23.80;38.20;;;;;;5913255;28;19933;-53
2022/04/26 12:10:45;;;;;;;;;;;23.90;38.30;;;;;;5990500;28;20592;-48
2022/04/26 12:13:57;;;;;;;;;;;23.90;38.20;;;;;;6014395;28;19959;-48
2022/04/26 12:17:00;;;;;;;;;;;23.90;38.20;;;;;;5971121;28;20006;-50
2022/04/26 12:20:09;;;;;;;;;;;23.90;38.20;;;;;;6005130;28;24976;-51
2022/04/26 12:23:20;;;;;;;;;;;23.90;38.10;;;;;;6004935;28;20028;-48
2022/04/26 12:26:24;;;;;;;;;;;23.90;38.20;;;;;;6001738;28;19982;-51
2022/04/26 12:29:27;;;;;;;;;;;24.00;38.20;;;;;;5972800;28;19933;-48
2022/04/26 12:32:29;;;;;;;;;;;24.00;38.20;;;;;;5922361;28;20344;-50
2022/04/26 12:35:31;;;;;;;;;;;24.00;38.10;;;;;;5966463;28;19933;-53
2022/04/26 12:38:44;;;;;;;;;;;24.00;38.10;;;;;;6010850;27;19931;-51
2022/04/26 12:41:47;;;;;;;;;;;24.00;38.10;;;;;;6047121;27;19939;-49
2022/04/26 12:44:49;;;;;;;;;;;24.10;38.10;;;;;;6033552;27;20087;-49
2022/04/26 12:51:21;;;;;;;;;;;24.10;38.00;;;;;;6055446;27;19932;-47
2022/04/26 12:54:29;;;;;;;;;;;24.10;38.00;;;;;;6080319;27;19931;-49
2022/04/26 12:57:31;;;;;;;;;;;23.90;37.90;;;;;;6058702;27;20000;-49
2022/04/26 13:00:33;;;;;;;;;;;24.10;38.00;;;;;;6060162;27;20028;-52
2022/04/26 13:03:37;;;;;;;;;;;24.20;38.10;;;;;;6068416;27;19954;-49
2022/04/26 13:06:38;;;;;;;;;;;24.10;38.00;;;;;;6030686;27;21352;-46
2022/04/26 13:10:00;;;;;;;;;;;24.10;38.00;;;;;;6034517;27;19970;-48
2022/04/26 13:13:01;;;;;;;;;;;24.20;38.20;;;;;;6024772;27;21961;-51
2022/04/26 13:16:03;;;;;;;;;;;24.10;38.10;;;;;;6023443;27;33310;-47
2022/04/26 13:19:05;;;;;;;;;;;24.10;38.10;;;;;;6021674;27;19931;-48
2022/04/26 13:22:07;;;;;;;;;;;24.10;38.10;;;;;;6063188;27;21297;-51
2022/04/26 13:25:09;;;;;;;;;;;24.10;38.10;;;;;;6057882;27;20004;-49
2022/04/26 13:28:10;;;;;;;;;;;24.20;38.30;;;;;;6022402;27;19961;-47
2022/04/26 13:31:13;;;;;;;;;;;24.10;38.20;;;;;;6034217;27;20574;-50
2022/04/26 13:34:15;;;;;;;;;;;24.00;38.10;;;;;;6045452;27;19938;-47
2022/04/26 13:37:36;;;;;;;;;;;24.00;38.20;;;;;;6041891;27;20602;-52
2022/04/26 13:40:38;;;;;;;;;;;24.00;38.10;;;;;;6043721;27;19931;-49
2022/04/26 13:43:41;;;;;;;;;;;24.00;38.20;;;;;;6032414;27;21527;-48
2022/04/26 13:46:50;;;;;;;;;;;24.00;38.20;;;;;;6033208;27;19931;-50
2022/04/26 13:49:55;;;;;;;;;;;24.00;38.20;;;;;;6056829;27;20039;-47
2022/04/26 13:52:57;;;;;;;;;;;24.00;38.20;;;;;;6013700;27;19938;-53
2022/04/26 13:56:00;;;;;;;;;;;23.90;38.30;;;;;;5995320;27;19938;-47
2022/04/26 13:59:02;;;;;;;;;;;23.90;38.20;;;;;;6028289;27;22558;-50
2022/04/26 14:02:06;;;;;;;;;;;23.90;38.10;;;;;;5989046;27;19931;-47
2022/04/26 14:05:09;;;;;;;;;;;23.80;38.20;;;;;;5960230;27;19932;-48
2022/04/26 14:08:12;;;;;;;;;;;23.90;38.10;;;;;;5974639;27;19932;-47
2022/04/26 14:11:14;;;;;;;;;;;23.90;38.30;;;;;;6043357;27;21248;-52
2022/04/26 14:24:07;;;;;;;;;;;23.90;38.30;;;;;;6063258;27;19939;-49
2022/04/26 14:27:09;;;;;;;;;;;23.90;38.30;;;;;;6078929;27;19938;-46
2022/04/26 14:30:12;;;;;;;;;;;23.80;38.10;;;;;;6079268;27;20061;-52
2022/04/26 14:33:33;;;;;;;;;;;23.90;38.30;;;;;;6053100;27;19935;-50
2022/04/26 14:36:35;;;;;;;;;;;23.80;38.20;;;;;;6053353;27;21330;-47
2022/04/26 14:39:55;;;;;;;;;;;23.90;38.20;;;;;;6055965;27;19932;-52
2022/04/26 14:42:56;;;;;;;;;;;23.90;38.20;;;;;;6093826;27;19931;-49
2022/04/26 14:45:58;;;;;;;;;;;23.80;38.10;;;;;;6060908;27;20058;-48
2022/04/26 14:49:00;;;;;;;;;;;23.90;38.20;;;;;;6042947;27;19938;-50
2022/04/26 14:52:03;;;;;;;;;;;23.90;38.20;;;;;;6027059;27;19938;-46
2022/04/26 14:55:25;;;;;;;;;;;23.70;38.20;;;;;;6014272;27;21045;-49
2022/04/26 14:58:29;;;;;;;;;;;23.40;38.00;;;;;;6064891;27;21242;-50
2022/04/26 15:01:30;;;;;;;;;;;23.80;38.10;;;;;;6024832;27;20062;-48
2022/04/26 15:04:32;;;;;;;;;;;23.90;38.20;;;;;;6063653;27;19982;-48
2022/04/26 15:09:42;;;;;;;;;;;23.80;38.70;;;;;;6026187;27;19990;-50
2022/04/26 15:10:56;;;;;;;;;;;23.90;38.20;;;;;;6016446;27;19931;-49
2022/04/26 15:17:14;;;;;;;;;;;23.90;38.20;;;;;;6044114;27;19931;-49
2022/04/26 15:20:17;;;;;;;;;;;23.80;38.20;;;;;;6068328;27;19931;-51
2022/04/26 15:23:20;;;;;;;;;;;23.90;38.60;;;;;;6068086;27;19945;-47
2022/04/26 15:26:22;;;;;;;;;;;23.70;38.00;;;;;;6049896;27;19931;-51
2022/04/26 15:29:23;;;;;;;;;;;23.90;38.10;;;;;;6065041;27;19938;-50
2022/04/26 15:32:25;;;;;;;;;;;23.90;38.20;;;;;;6115786;27;19936;-55
2022/04/26 15:35:27;;;;;;;;;;;23.90;38.10;;;;;;6105540;27;19931;-49
2022/04/26 15:38:29;;;;;;;;;;;23.70;38.10;;;;;;6110663;27;19938;-46
2022/04/26 15:41:32;;;;;;;;;;;23.80;38.10;;;;;;6090298;27;19932;-51
2022/04/26 15:44:33;;;;;;;;;;;23.80;38.20;;;;;;6059590;27;20012;-47
2022/04/26 15:47:35;;;;;;;;;;;23.80;38.10;;;;;;6087332;27;19938;-47
2022/04/26 15:50:39;;;;;;;;;;;23.70;38.10;;;;;;6101552;27;19932;-49
2022/04/26 15:53:41;;;;;;;;;;;23.80;38.20;;;;;;6086627;27;32102;-49
2022/04/26 15:56:42;;;;;;;;;;;23.70;38.00;;;;;;6121426;27;19932;-46
2022/04/26 15:59:45;;;;;;;;;;;23.80;38.00;;;;;;6070823;27;19931;-47
2022/04/26 16:02:46;;;;;;;;;;;23.80;38.00;;;;;;6088185;27;19990;-55
2022/04/26 16:05:48;;;;;;;;;;;24.00;38.20;;;;;;6135048;27;20031;-50
2022/04/26 16:08:50;;;;;;;;;;;23.80;38.00;;;;;;6149197;27;19938;-51
2022/04/26 16:21:47;;;;;;;;;;;23.90;38.00;;;;;;6180308;27;20067;-49
2022/04/26 16:24:49;;;;;;;;;;;23.90;38.10;;;;;;6170627;27;19932;-48
2022/04/26 16:27:50;;;;;;;;;;;23.90;38.10;;;;;;6172596;27;21015;-50
2022/04/26 16:30:58;;;;;;;;;;;23.80;37.90;;;;;;6187116;27;19931;-51
2022/04/26 16:34:00;;;;;;;;;;;23.90;38.00;;;;;;6212452;27;21015;-46
2022/04/26 16:37:02;;;;;;;;;;;23.90;38.00;;;;;;6191571;27;21231;-46
2022/04/26 16:40:04;;;;;;;;;;;23.90;38.00;;;;;;6221622;27;19931;-47
2022/04/26 16:43:06;;;;;;;;;;;23.80;37.90;;;;;;6201901;27;19938;-48
2022/04/26 16:46:10;;;;;;;;;;;23.90;37.90;;;;;;6217980;27;19932;-50
2022/04/26 16:49:12;;;;;;;;;;;23.80;37.90;;;;;;6216965;27;20950;-47
2022/04/26 16:52:13;;;;;;;;;;;23.80;37.90;;;;;;6220438;27;19931;-49
2022/04/26 16:55:15;;;;;;;;;;;23.90;38.00;;;;;;6218119;27;21079;-49
2022/04/26 16:58:18;;;;;;;;;;;23.90;38.00;;;;;;6235031;27;19931;-51
2022/04/26 17:01:19;;;;;;;;;;;23.80;38.60;;;;;;6212364;27;20093;-46
2022/04/26 17:04:22;;;;;;;;;;;23.80;37.90;;;;;;6205219;27;19931;-49
2022/04/26 17:07:25;;;;;;;;;;;23.80;37.90;;;;;;6235685;27;20053;-46
2022/04/26 17:10:27;;;;;;;;;;;23.90;37.90;;;;;;6260035;27;19931;-49
2022/04/26 17:13:28;;;;;;;;;;;23.90;37.90;;;;;;6236809;27;19939;-49
2022/04/26 17:16:29;;;;;;;;;;;23.90;37.90;;;;;;6257248;27;19932;-48
2022/04/26 17:19:31;;;;;;;;;;;23.80;37.90;;;;;;6242812;27;20108;-49
2022/04/26 17:22:32;;;;;;;;;;;23.80;37.80;;;;;;6274671;27;20046;-50
2022/04/26 17:25:35;;;;;;;;;;;23.90;37.90;;;;;;6270057;27;19931;-53
2022/04/26 17:28:47;;;;;;;;;;;23.80;37.80;;;;;;6269353;27;20172;-51
2022/04/26 17:31:48;;;;;;;;;;;23.90;37.90;;;;;;6276556;27;19932;-50
2022/04/26 17:34:50;;;;;;;;;;;24.00;37.90;;;;;;6261134;27;20113;-45
2022/04/26 17:37:52;;;;;;;;;;;23.90;37.80;;;;;;6285331;27;19981;-48
2022/04/26 17:40:54;;;;;;;;;;;23.90;37.80;;;;;;6278178;27;19937;-48
2022/04/26 17:43:56;;;;;;;;;;;23.90;37.80;;;;;;6287689;27;20016;-46
2022/04/26 17:46:57;;;;;;;;;;;24.00;37.90;;;;;;6285085;27;20038;-47
2022/04/26 17:50:18;;;;;;;;;;;23.80;37.80;;;;;;6278212;27;20656;-48
2022/04/26 17:56:39;;;;;;;;;;;23.90;37.80;;;;;;6292126;27;20074;-48
2022/04/26 17:59:40;;;;;;;;;;;24.00;37.90;;;;;;6285853;27;20963;-50
2022/04/26 18:02:42;;;;;;;;;;;23.90;37.80;;;;;;6284462;27;20046;-51
2022/04/26 18:05:45;;;;;;;;;;;24.00;37.90;;;;;;6291965;27;19938;-49
2022/04/26 18:08:46;;;;;;;;;;;23.90;37.80;;;;;;6289252;27;20070;-47
2022/04/26 18:11:48;;;;;;;;;;;24.00;37.80;;;;;;6289105;27;20024;-50
2022/04/26 18:14:50;;;;;;;;;;;24.00;37.80;;;;;;6292718;27;20088;-50
2022/04/26 18:17:51;;;;;;;;;;;24.00;37.90;;;;;;6291373;27;20025;-51
2022/04/26 18:21:01;;;;;;;;;;;24.00;37.80;;;;;;6295713;27;20627;-48
2022/04/26 18:24:03;;;;;;;;;;;24.00;37.70;;;;;;6296037;27;20339;-50
2022/04/26 18:27:05;;;;;;;;;;;24.10;37.80;;;;;;6297861;27;19977;-48
2022/04/26 18:30:07;;;;;;;;;;;24.00;37.80;;;;;;6298406;27;19927;-47
2022/04/26 18:33:08;;;;;;;;;;;23.90;37.80;;;;;;6295054;27;19937;-51
2022/04/26 18:36:11;;;;;;;;;;;24.00;37.90;;;;;;6300074;27;19927;-52
2022/04/26 18:39:12;;;;;;;;;;;24.00;37.90;;;;;;6276277;27;19963;-52
2022/04/26 18:42:15;;;;;;;;;;;24.00;37.80;;;;;;6300205;27;20058;-49
2022/04/26 18:45:17;;;;;;;;;;;23.90;37.80;;;;;;6298896;27;20855;-49
2022/04/26 18:48:19;;;;;;;;;;;23.80;37.80;;;;;;6296224;27;19938;-52
2022/04/26 18:51:20;;;;;;;;;;;24.00;37.80;;;;;;6298806;27;20768;-51
2022/04/26 18:54:22;;;;;;;;;;;24.00;37.90;;;;;;6295398;27;19928;-50
2022/04/26 18:57:24;;;;;;;;;;;23.90;37.80;;;;;;6290766;27;19931;-48
2022/04/26 19:00:25;;;;;;;;;;;23.90;37.80;;;;;;6295956;27;20149;-50
2022/04/26 19:03:27;;;;;;;;;;;24.00;37.90;;;;;;6290652;27;19932;-47
2022/04/26 19:06:28;;;;;;;;;;;23.90;37.80;;;;;;6291923;27;20909;-46
2022/04/26 19:09:29;;;;;;;;;;;23.90;37.80;;;;;;6280758;27;19938;-49
2022/04/26 19:12:31;;;;;;;;;;;24.00;37.90;;;;;;6285625;27;19932;-51
2022/04/26 19:15:33;;;;;;;;;;;23.90;37.90;;;;;;6291334;27;20120;-51
2022/04/26 19:18:34;;;;;;;;;;;23.90;37.80;;;;;;6292423;27;19932;-48
2022/04/26 19:21:36;;;;;;;;;;;23.90;37.80;;;;;;6295047;27;20359;-46
2022/04/26 19:24:37;;;;;;;;;;;23.90;37.80;;;;;;6283642;27;19938;-47
2022/04/26 19:27:40;;;;;;;;;;;24.00;37.90;;;;;;6292207;27;19955;-50
2022/04/26 19:30:42;;;;;;;;;;;23.90;37.90;;;;;;6299560;27;20041;-47
2022/04/26 19:33:43;;;;;;;;;;;23.90;37.90;;;;;;6295372;27;20035;-52
2022/04/26 19:36:44;;;;;;;;;;;23.80;37.90;;;;;;6294774;27;19966;-48
2022/04/26 19:39:46;;;;;;;;;;;24.00;37.90;;;;;;6294661;27;19935;-49
2022/04/26 19:42:48;;;;;;;;;;;23.80;37.90;;;;;;6295971;27;20050;-49
2022/04/26 19:45:49;;;;;;;;;;;23.90;38.00;;;;;;6300277;27;20694;-48
2022/04/26 19:48:51;;;;;;;;;;;23.80;37.90;;;;;;6302376;27;19938;-49
2022/04/26 19:51:52;;;;;;;;;;;23.80;38.00;;;;;;6298340;27;19931;-51
2022/04/26 19:54:59;;;;;;;;;;;23.80;38.00;;;;;;6292320;27;19934;-50
2022/04/26 19:58:01;;;;;;;;;;;23.80;38.00;;;;;;6299876;27;20678;-49
2022/04/26 20:01:03;;;;;;;;;;;23.70;38.00;;;;;;6301717;27;19996;-48
2022/04/26 20:04:05;;;;;;;;;;;23.70;38.00;;;;;;6294782;27;19931;-48
2022/04/26 20:07:07;;;;;;;;;;;23.70;38.00;;;;;;6296583;27;19927;-49
2022/04/26 20:10:08;;;;;;;;;;;23.70;38.00;;;;;;6289280;27;20042;-52
2022/04/26 20:13:10;;;;;;;;;;;23.70;38.10;;;;;;6301573;27;19927;-50
2022/04/26 20:16:13;;;;;;;;;;;23.70;38.10;;;;;;6307759;27;20050;-48
2022/04/26 20:19:15;;;;;;;;;;;23.70;38.10;;;;;;6304316;27;19923;-50
2022/04/26 20:22:17;;;;;;;;;;;23.60;38.70;;;;;;6281689;27;20051;-46
2022/04/26 20:25:19;;;;;;;;;;;23.60;38.10;;;;;;6301880;27;20608;-50
2022/04/26 20:31:37;;;;;;;;;;;23.60;38.10;;;;;;6299543;27;19931;-47
2022/04/26 20:34:39;;;;;;;;;;;23.60;38.20;;;;;;6304436;27;20480;-48
2022/04/26 20:37:41;;;;;;;;;;;23.60;38.20;;;;;;6303778;27;19923;-47
2022/04/26 20:40:44;;;;;;;;;;;23.50;38.20;;;;;;6298701;27;20982;-52
2022/04/26 20:43:46;;;;;;;;;;;23.60;38.20;;;;;;6297539;27;21025;-52
2022/04/26 20:46:47;;;;;;;;;;;23.60;38.20;;;;;;6302581;27;19931;-47
2022/04/26 20:49:49;;;;;;;;;;;23.50;38.30;;;;;;6304096;27;20749;-48
2022/04/26 20:52:50;;;;;;;;;;;23.50;38.20;;;;;;6280540;27;21722;-48
2022/04/26 20:55:51;;;;;;;;;;;23.50;38.20;;;;;;6298698;27;19935;-48
2022/04/26 20:58:54;;;;;;;;;;;23.50;38.20;;;;;;6300004;27;19924;-50
2022/04/26 21:01:55;;;;;;;;;;;23.50;38.20;;;;;;6310535;27;19928;-53
2022/04/26 21:04:57;;;;;;;;;;;23.40;38.10;;;;;;6302298;27;19943;-50
2022/04/26 21:07:58;;;;;;;;;;;23.40;38.30;;;;;;6293670;27;19938;-50
2022/04/26 21:10:59;;;;;;;;;;;23.40;38.20;;;;;;6302723;27;19932;-46
2022/04/26 21:14:02;;;;;;;;;;;23.30;38.20;;;;;;6303151;27;19927;-50
2022/04/26 21:17:03;;;;;;;;;;;23.30;38.30;;;;;;6301515;27;19928;-47
2022/04/26 21:20:05;;;;;;;;;;;23.30;38.20;;;;;;6299224;27;20862;-47
2022/04/26 21:23:06;;;;;;;;;;;23.30;38.20;;;;;;6306805;27;19975;-50
2022/04/26 21:26:08;;;;;;;;;;;23.20;38.20;;;;;;6311052;27;20780;-45
2022/04/26 21:29:10;;;;;;;;;;;23.30;38.30;;;;;;6303527;27;20049;-48
2022/04/26 21:32:12;;;;;;;;;;;23.30;38.30;;;;;;6303339;27;19927;-50
2022/04/26 21:35:13;;;;;;;;;;;23.20;38.30;;;;;;6299753;27;19931;-49
2022/04/26 21:38:15;;;;;;;;;;;23.10;38.30;;;;;;6282325;27;19934;-46
2022/04/26 21:41:17;;;;;;;;;;;23.20;38.40;;;;;;6297378;27;19974;-48
2022/04/26 21:44:20;;;;;;;;;;;23.20;38.40;;;;;;6300487;27;20997;-49
2022/04/26 21:47:21;;;;;;;;;;;23.20;38.40;;;;;;6303043;27;19942;-49
2022/04/26 21:53:39;;;;;;;;;;;23.00;38.40;;;;;;6305452;27;20025;-50
2022/04/26 21:56:40;;;;;;;;;;;23.10;38.50;;;;;;6296352;28;20046;-48
2022/04/26 21:59:43;;;;;;;;;;;23.00;38.40;;;;;;6300419;27;19931;-49
2022/04/26 22:02:44;;;;;;;;;;;23.10;38.50;;;;;;6302895;27;20743;-50
2022/04/26 22:05:46;;;;;;;;;;;23.10;38.60;;;;;;6302702;27;19934;-48
2022/04/26 22:08:47;;;;;;;;;;;23.00;38.70;;;;;;6289582;27;19978;-48
2022/04/26 22:11:49;;;;;;;;;;;23.20;38.70;;;;;;6298315;27;20049;-49
2022/04/26 22:14:51;;;;;;;;;;;23.10;38.70;;;;;;6297573;27;19931;-49
2022/04/26 22:17:52;;;;;;;;;;;23.10;38.80;;;;;;6295028;27;19974;-45